sensor_id;sensor_type;location;lat;lon;timestamp;P1;durP1;ratioP1;P2;durP2;ratioP2
8042;SDS011;4064;48.132;11.366;2022-11-20T00:01:36;7.37;;;4.73;;
8042;SDS011;4064;48.132;11.366;2022-11-20T00:04:02;3.87;;;3.30;;
8042;SDS011;4064;48.132;11.366;2022-11-20T00:06:28;5.20;;;4.30;;
8042;SDS011;4064;48.132;11.366;2022-11-20T00:08:55;4.80;;;4.30;;
8042;SDS011;4064;48.132;11.366;2022-11-20T00:11:23;6.22;;;4.22;;
8042;SDS011;4064;48.132;11.366;2022-11-20T00:13:50;6.55;;;3.45;;
8042;SDS011;4064;48.132;11.366;2022-11-20T00:16:21;2.92;;;2.72;;
8042;SDS011;4064;48.132;11.366;2022-11-20T00:18:48;6.13;;;3.53;;
8042;SDS011;4064;48.132;11.366;2022-11-20T00:21:16;4.40;;;3.20;;
8042;SDS011;4064;48.132;11.366;2022-11-20T00:23:43;4.28;;;3.30;;
8042;SDS011;4064;48.132;11.366;2022-11-20T00:26:11;3.95;;;3.55;;
8042;SDS011;4064;48.132;11.366;2022-11-20T00:28:41;4.78;;;3.70;;
8042;SDS011;4064;48.132;11.366;2022-11-20T00:33:38;3.50;;;3.13;;
8042;SDS011;4064;48.132;11.366;2022-11-20T00:36:10;4.53;;;3.23;;
8042;SDS011;4064;48.132;11.366;2022-11-20T00:38:38;6.40;;;3.95;;
8042;SDS011;4064;48.132;11.366;2022-11-20T00:41:06;3.70;;;3.40;;
8042;SDS011;4064;48.132;11.366;2022-11-20T00:43:32;4.32;;;3.90;;
8042;SDS011;4064;48.132;11.366;2022-11-20T00:45:59;3.80;;;3.50;;
8042;SDS011;4064;48.132;11.366;2022-11-20T00:48:25;4.75;;;3.85;;
8042;SDS011;4064;48.132;11.366;2022-11-20T00:50:51;5.65;;;3.83;;
8042;SDS011;4064;48.132;11.366;2022-11-20T00:53:18;4.30;;;3.90;;
8042;SDS011;4064;48.132;11.366;2022-11-20T00:55:51;4.30;;;3.80;;
8042;SDS011;4064;48.132;11.366;2022-11-20T00:58:21;4.10;;;3.38;;
8042;SDS011;4064;48.132;11.366;2022-11-20T01:00:48;5.43;;;4.53;;
8042;SDS011;4064;48.132;11.366;2022-11-20T01:03:17;3.67;;;3.35;;
8042;SDS011;4064;48.132;11.366;2022-11-20T01:05:43;5.00;;;3.72;;
8042;SDS011;4064;48.132;11.366;2022-11-20T01:08:09;4.00;;;3.53;;
8042;SDS011;4064;48.132;11.366;2022-11-20T01:10:35;3.33;;;3.03;;
8042;SDS011;4064;48.132;11.366;2022-11-20T01:13:01;3.87;;;3.57;;
8042;SDS011;4064;48.132;11.366;2022-11-20T01:15:45;4.78;;;3.65;;
8042;SDS011;4064;48.132;11.366;2022-11-20T01:18:11;5.00;;;4.07;;
8042;SDS011;4064;48.132;11.366;2022-11-20T01:20:36;3.17;;;2.87;;
8042;SDS011;4064;48.132;11.366;2022-11-20T01:23:02;3.57;;;3.27;;
8042;SDS011;4064;48.132;11.366;2022-11-20T01:25:29;4.55;;;4.15;;
8042;SDS011;4064;48.132;11.366;2022-11-20T01:27:54;4.03;;;3.67;;
8042;SDS011;4064;48.132;11.366;2022-11-20T01:30:20;3.40;;;3.10;;
8042;SDS011;4064;48.132;11.366;2022-11-20T01:32:46;4.40;;;3.20;;
8042;SDS011;4064;48.132;11.366;2022-11-20T01:35:11;4.10;;;3.73;;
8042;SDS011;4064;48.132;11.366;2022-11-20T01:37:37;4.90;;;3.80;;
8042;SDS011;4064;48.132;11.366;2022-11-20T01:40:03;4.17;;;3.77;;
8042;SDS011;4064;48.132;11.366;2022-11-20T01:42:29;6.70;;;3.63;;
8042;SDS011;4064;48.132;11.366;2022-11-20T01:48:17;4.03;;;3.63;;
8042;SDS011;4064;48.132;11.366;2022-11-20T01:50:44;3.85;;;3.17;;
8042;SDS011;4064;48.132;11.366;2022-11-20T01:53:11;3.90;;;3.60;;
8042;SDS011;4064;48.132;11.366;2022-11-20T01:55:41;4.80;;;4.07;;
8042;SDS011;4064;48.132;11.366;2022-11-20T01:58:14;4.60;;;3.95;;
8042;SDS011;4064;48.132;11.366;2022-11-20T02:00:41;4.38;;;3.97;;
8042;SDS011;4064;48.132;11.366;2022-11-20T02:03:09;4.10;;;3.70;;
8042;SDS011;4064;48.132;11.366;2022-11-20T02:05:46;5.57;;;4.05;;
8042;SDS011;4064;48.132;11.366;2022-11-20T02:08:19;4.72;;;3.72;;
8042;SDS011;4064;48.132;11.366;2022-11-20T02:10:45;5.07;;;3.80;;
8042;SDS011;4064;48.132;11.366;2022-11-20T02:13:11;4.17;;;3.87;;
8042;SDS011;4064;48.132;11.366;2022-11-20T02:15:55;3.70;;;3.40;;
8042;SDS011;4064;48.132;11.366;2022-11-20T02:18:21;5.60;;;4.07;;
8042;SDS011;4064;48.132;11.366;2022-11-20T02:20:49;5.15;;;4.20;;
8042;SDS011;4064;48.132;11.366;2022-11-20T02:23:26;5.00;;;4.30;;
8042;SDS011;4064;48.132;11.366;2022-11-20T02:26:01;6.50;;;3.95;;
8042;SDS011;4064;48.132;11.366;2022-11-20T02:28:30;3.70;;;3.40;;
8042;SDS011;4064;48.132;11.366;2022-11-20T02:30:56;5.37;;;4.03;;
8042;SDS011;4064;48.132;11.366;2022-11-20T02:33:22;3.60;;;3.30;;
8042;SDS011;4064;48.132;11.366;2022-11-20T02:35:47;6.67;;;4.10;;
8042;SDS011;4064;48.132;11.366;2022-11-20T02:38:13;3.97;;;3.57;;
8042;SDS011;4064;48.132;11.366;2022-11-20T02:40:39;4.05;;;3.65;;
8042;SDS011;4064;48.132;11.366;2022-11-20T02:43:05;4.00;;;3.60;;
8042;SDS011;4064;48.132;11.366;2022-11-20T02:45:31;5.10;;;3.88;;
8042;SDS011;4064;48.132;11.366;2022-11-20T02:47:57;4.73;;;4.23;;
8042;SDS011;4064;48.132;11.366;2022-11-20T02:50:23;4.50;;;4.10;;
8042;SDS011;4064;48.132;11.366;2022-11-20T02:52:49;4.67;;;4.20;;
8042;SDS011;4064;48.132;11.366;2022-11-20T02:55:14;4.53;;;4.13;;
8042;SDS011;4064;48.132;11.366;2022-11-20T02:57:40;4.03;;;3.53;;
8042;SDS011;4064;48.132;11.366;2022-11-20T03:00:06;4.40;;;3.97;;
8042;SDS011;4064;48.132;11.366;2022-11-20T03:02:33;6.53;;;3.63;;
8042;SDS011;4064;48.132;11.366;2022-11-20T03:04:59;4.60;;;3.50;;
8042;SDS011;4064;48.132;11.366;2022-11-20T03:07:25;3.87;;;3.57;;
8042;SDS011;4064;48.132;11.366;2022-11-20T03:09:50;4.53;;;4.03;;
8042;SDS011;4064;48.132;11.366;2022-11-20T03:12:16;5.07;;;4.13;;
8042;SDS011;4064;48.132;11.366;2022-11-20T03:14:42;5.37;;;4.20;;
8042;SDS011;4064;48.132;11.366;2022-11-20T03:17:07;4.20;;;3.80;;
8042;SDS011;4064;48.132;11.366;2022-11-20T03:19:33;5.10;;;4.60;;
8042;SDS011;4064;48.132;11.366;2022-11-20T03:21:59;4.10;;;3.70;;
8042;SDS011;4064;48.132;11.366;2022-11-20T03:24:25;3.53;;;3.22;;
8042;SDS011;4064;48.132;11.366;2022-11-20T03:26:51;4.23;;;3.73;;
8042;SDS011;4064;48.132;11.366;2022-11-20T03:29:16;6.00;;;4.00;;
8042;SDS011;4064;48.132;11.366;2022-11-20T03:31:42;4.63;;;3.73;;
8042;SDS011;4064;48.132;11.366;2022-11-20T03:34:09;4.20;;;3.80;;
8042;SDS011;4064;48.132;11.366;2022-11-20T03:36:39;4.65;;;3.92;;
8042;SDS011;4064;48.132;11.366;2022-11-20T03:39:06;5.05;;;3.55;;
8042;SDS011;4064;48.132;11.366;2022-11-20T03:41:35;4.20;;;3.67;;
8042;SDS011;4064;48.132;11.366;2022-11-20T03:44:02;6.10;;;5.60;;
8042;SDS011;4064;48.132;11.366;2022-11-20T03:46:29;4.85;;;3.97;;
8042;SDS011;4064;48.132;11.366;2022-11-20T03:48:55;9.23;;;3.63;;
8042;SDS011;4064;48.132;11.366;2022-11-20T03:51:22;5.75;;;4.00;;
8042;SDS011;4064;48.132;11.366;2022-11-20T03:53:53;3.70;;;3.40;;
8042;SDS011;4064;48.132;11.366;2022-11-20T03:56:25;5.68;;;5.15;;
8042;SDS011;4064;48.132;11.366;2022-11-20T03:58:51;4.47;;;3.45;;
8042;SDS011;4064;48.132;11.366;2022-11-20T04:01:18;4.10;;;3.37;;
8042;SDS011;4064;48.132;11.366;2022-11-20T04:03:46;4.05;;;3.65;;
8042;SDS011;4064;48.132;11.366;2022-11-20T04:06:13;4.43;;;4.03;;
8042;SDS011;4064;48.132;11.366;2022-11-20T04:08:41;4.03;;;3.35;;
8042;SDS011;4064;48.132;11.366;2022-11-20T04:11:14;5.70;;;4.50;;
8042;SDS011;4064;48.132;11.366;2022-11-20T04:13:41;5.15;;;4.32;;
8042;SDS011;4064;48.132;11.366;2022-11-20T04:16:10;3.75;;;3.45;;
8042;SDS011;4064;48.132;11.366;2022-11-20T04:18:36;4.57;;;4.10;;
8042;SDS011;4064;48.132;11.366;2022-11-20T04:21:02;4.60;;;4.10;;
8042;SDS011;4064;48.132;11.366;2022-11-20T04:23:28;4.15;;;3.65;;
8042;SDS011;4064;48.132;11.366;2022-11-20T04:25:54;7.60;;;3.70;;
8042;SDS011;4064;48.132;11.366;2022-11-20T04:28:19;4.60;;;3.80;;
8042;SDS011;4064;48.132;11.366;2022-11-20T04:30:45;4.03;;;3.63;;
8042;SDS011;4064;48.132;11.366;2022-11-20T04:33:11;4.47;;;4.00;;
8042;SDS011;4064;48.132;11.366;2022-11-20T04:35:37;4.20;;;3.80;;
8042;SDS011;4064;48.132;11.366;2022-11-20T04:38:03;4.30;;;3.90;;
8042;SDS011;4064;48.132;11.366;2022-11-20T04:40:29;4.25;;;3.85;;
8042;SDS011;4064;48.132;11.366;2022-11-20T04:42:55;4.65;;;4.25;;
8042;SDS011;4064;48.132;11.366;2022-11-20T04:45:24;4.43;;;4.05;;
8042;SDS011;4064;48.132;11.366;2022-11-20T04:47:50;4.00;;;3.70;;
8042;SDS011;4064;48.132;11.366;2022-11-20T04:50:15;7.20;;;4.13;;
8042;SDS011;4064;48.132;11.366;2022-11-20T04:52:41;4.87;;;4.03;;
8042;SDS011;4064;48.132;11.366;2022-11-20T04:55:07;4.43;;;4.03;;
8042;SDS011;4064;48.132;11.366;2022-11-20T04:57:33;3.80;;;3.38;;
8042;SDS011;4064;48.132;11.366;2022-11-20T04:59:58;4.73;;;4.27;;
8042;SDS011;4064;48.132;11.366;2022-11-20T05:02:24;4.57;;;3.90;;
8042;SDS011;4064;48.132;11.366;2022-11-20T05:04:49;4.43;;;4.03;;
8042;SDS011;4064;48.132;11.366;2022-11-20T05:07:15;5.20;;;4.70;;
8042;SDS011;4064;48.132;11.366;2022-11-20T05:09:41;4.77;;;4.37;;
8042;SDS011;4064;48.132;11.366;2022-11-20T05:12:07;9.83;;;5.13;;
8042;SDS011;4064;48.132;11.366;2022-11-20T05:14:33;6.05;;;5.55;;
8042;SDS011;4064;48.132;11.366;2022-11-20T05:16:59;6.63;;;5.20;;
8042;SDS011;4064;48.132;11.366;2022-11-20T05:19:25;8.33;;;6.43;;
8042;SDS011;4064;48.132;11.366;2022-11-20T05:21:50;11.50;;;6.23;;
8042;SDS011;4064;48.132;11.366;2022-11-20T05:24:16;9.97;;;7.87;;
8042;SDS011;4064;48.132;11.366;2022-11-20T05:26:41;5.73;;;5.20;;
8042;SDS011;4064;48.132;11.366;2022-11-20T05:29:09;8.67;;;4.47;;
8042;SDS011;4064;48.132;11.366;2022-11-20T05:31:38;5.93;;;4.65;;
8042;SDS011;4064;48.132;11.366;2022-11-20T05:34:05;5.15;;;4.65;;
8042;SDS011;4064;48.132;11.366;2022-11-20T05:36:31;4.80;;;4.07;;
8042;SDS011;4064;48.132;11.366;2022-11-20T05:38:57;4.10;;;3.70;;
8042;SDS011;4064;48.132;11.366;2022-11-20T05:41:23;4.30;;;3.67;;
8042;SDS011;4064;48.132;11.366;2022-11-20T05:43:49;5.40;;;4.17;;
8042;SDS011;4064;48.132;11.366;2022-11-20T05:46:16;3.95;;;3.55;;
8042;SDS011;4064;48.132;11.366;2022-11-20T05:48:45;4.28;;;3.80;;
8042;SDS011;4064;48.132;11.366;2022-11-20T05:51:13;4.30;;;3.90;;
8042;SDS011;4064;48.132;11.366;2022-11-20T05:53:41;5.18;;;3.95;;
8042;SDS011;4064;48.132;11.366;2022-11-20T05:56:09;6.95;;;3.60;;
8042;SDS011;4064;48.132;11.366;2022-11-20T05:58:36;4.32;;;3.88;;
8042;SDS011;4064;48.132;11.366;2022-11-20T06:01:10;4.38;;;4.03;;
8042;SDS011;4064;48.132;11.366;2022-11-20T06:03:37;3.88;;;3.55;;
8042;SDS011;4064;48.132;11.366;2022-11-20T06:06:04;4.35;;;3.95;;
8042;SDS011;4064;48.132;11.366;2022-11-20T06:08:31;4.10;;;3.58;;
8042;SDS011;4064;48.132;11.366;2022-11-20T06:10:57;4.85;;;4.35;;
8042;SDS011;4064;48.132;11.366;2022-11-20T06:13:23;4.40;;;4.00;;
8042;SDS011;4064;48.132;11.366;2022-11-20T06:15:49;7.70;;;4.20;;
8042;SDS011;4064;48.132;11.366;2022-11-20T06:18:16;3.95;;;3.60;;
8042;SDS011;4064;48.132;11.366;2022-11-20T06:20:42;3.83;;;3.50;;
8042;SDS011;4064;48.132;11.366;2022-11-20T06:23:08;4.43;;;3.87;;
8042;SDS011;4064;48.132;11.366;2022-11-20T06:25:36;4.20;;;3.10;;
8042;SDS011;4064;48.132;11.366;2022-11-20T06:28:03;3.70;;;3.25;;
8042;SDS011;4064;48.132;11.366;2022-11-20T06:30:29;3.90;;;3.60;;
8042;SDS011;4064;48.132;11.366;2022-11-20T06:32:54;3.17;;;2.87;;
8042;SDS011;4064;48.132;11.366;2022-11-20T06:35:20;3.17;;;2.87;;
8042;SDS011;4064;48.132;11.366;2022-11-20T06:37:46;3.50;;;3.20;;
8042;SDS011;4064;48.132;11.366;2022-11-20T06:40:11;3.53;;;3.10;;
8042;SDS011;4064;48.132;11.366;2022-11-20T06:42:37;6.60;;;3.10;;
8042;SDS011;4064;48.132;11.366;2022-11-20T06:45:03;4.20;;;3.00;;
8042;SDS011;4064;48.132;11.366;2022-11-20T06:47:28;4.17;;;3.73;;
8042;SDS011;4064;48.132;11.366;2022-11-20T06:49:54;3.27;;;2.97;;
8042;SDS011;4064;48.132;11.366;2022-11-20T06:52:20;4.40;;;3.20;;
8042;SDS011;4064;48.132;11.366;2022-11-20T06:54:45;3.33;;;3.10;;
8042;SDS011;4064;48.132;11.366;2022-11-20T06:57:11;2.77;;;2.57;;
8042;SDS011;4064;48.132;11.366;2022-11-20T06:59:36;3.20;;;2.90;;
8042;SDS011;4064;48.132;11.366;2022-11-20T07:02:02;4.60;;;3.60;;
8042;SDS011;4064;48.132;11.366;2022-11-20T07:04:28;3.60;;;3.30;;
8042;SDS011;4064;48.132;11.366;2022-11-20T07:06:53;3.40;;;3.10;;
8042;SDS011;4064;48.132;11.366;2022-11-20T07:09:19;3.10;;;2.83;;
8042;SDS011;4064;48.132;11.366;2022-11-20T07:11:44;5.73;;;3.60;;
8042;SDS011;4064;48.132;11.366;2022-11-20T07:14:10;4.30;;;3.90;;
8042;SDS011;4064;48.132;11.366;2022-11-20T07:16:36;3.80;;;3.40;;
8042;SDS011;4064;48.132;11.366;2022-11-20T07:19:01;4.97;;;4.33;;
8042;SDS011;4064;48.132;11.366;2022-11-20T07:21:27;4.63;;;3.67;;
8042;SDS011;4064;48.132;11.366;2022-11-20T07:23:52;5.17;;;4.67;;
8042;SDS011;4064;48.132;11.366;2022-11-20T07:26:18;4.50;;;4.00;;
8042;SDS011;4064;48.132;11.366;2022-11-20T07:28:44;5.38;;;3.90;;
8042;SDS011;4064;48.132;11.366;2022-11-20T07:31:10;4.90;;;4.20;;
8042;SDS011;4064;48.132;11.366;2022-11-20T07:33:37;4.00;;;3.60;;
8042;SDS011;4064;48.132;11.366;2022-11-20T07:36:03;3.73;;;3.33;;
8042;SDS011;4064;48.132;11.366;2022-11-20T07:38:29;4.32;;;3.92;;
8042;SDS011;4064;48.132;11.366;2022-11-20T07:40:58;3.60;;;3.30;;
8042;SDS011;4064;48.132;11.366;2022-11-20T07:43:26;5.38;;;4.00;;
8042;SDS011;4064;48.132;11.366;2022-11-20T07:45:55;5.57;;;4.28;;
8042;SDS011;4064;48.132;11.366;2022-11-20T07:48:21;5.60;;;4.05;;
8042;SDS011;4064;48.132;11.366;2022-11-20T07:50:47;4.90;;;4.50;;
8042;SDS011;4064;48.132;11.366;2022-11-20T07:53:18;4.30;;;3.90;;
8042;SDS011;4064;48.132;11.366;2022-11-20T07:55:45;4.68;;;4.28;;
8042;SDS011;4064;48.132;11.366;2022-11-20T07:58:12;4.70;;;4.13;;
8042;SDS011;4064;48.132;11.366;2022-11-20T08:00:39;6.18;;;4.10;;
8042;SDS011;4064;48.132;11.366;2022-11-20T08:03:08;4.35;;;3.95;;
8042;SDS011;4064;48.132;11.366;2022-11-20T08:05:34;4.55;;;4.15;;
8042;SDS011;4064;48.132;11.366;2022-11-20T08:08:03;4.43;;;3.97;;
8042;SDS011;4064;48.132;11.366;2022-11-20T08:10:28;4.60;;;4.20;;
8042;SDS011;4064;48.132;11.366;2022-11-20T08:12:54;4.63;;;4.13;;
8042;SDS011;4064;48.132;11.366;2022-11-20T08:15:38;4.10;;;3.70;;
8042;SDS011;4064;48.132;11.366;2022-11-20T08:18:08;4.95;;;3.65;;
8042;SDS011;4064;48.132;11.366;2022-11-20T08:20:36;3.45;;;3.15;;
8042;SDS011;4064;48.132;11.366;2022-11-20T08:23:06;4.30;;;3.90;;
8042;SDS011;4064;48.132;11.366;2022-11-20T08:25:33;4.78;;;3.10;;
8042;SDS011;4064;48.132;11.366;2022-11-20T08:28:00;4.28;;;3.03;;
8042;SDS011;4064;48.132;11.366;2022-11-20T08:30:27;3.10;;;2.80;;
8042;SDS011;4064;48.132;11.366;2022-11-20T08:32:54;3.10;;;2.63;;
8042;SDS011;4064;48.132;11.366;2022-11-20T08:35:20;3.97;;;3.58;;
8042;SDS011;4064;48.132;11.366;2022-11-20T08:37:47;3.30;;;3.00;;
8042;SDS011;4064;48.132;11.366;2022-11-20T08:40:13;4.13;;;3.53;;
8042;SDS011;4064;48.132;11.366;2022-11-20T08:42:48;4.50;;;3.70;;
8042;SDS011;4064;48.132;11.366;2022-11-20T08:45:15;4.55;;;3.40;;
8042;SDS011;4064;48.132;11.366;2022-11-20T08:47:42;4.35;;;3.25;;
8042;SDS011;4064;48.132;11.366;2022-11-20T08:50:09;4.25;;;2.92;;
8042;SDS011;4064;48.132;11.366;2022-11-20T08:52:36;3.00;;;2.80;;
8042;SDS011;4064;48.132;11.366;2022-11-20T08:55:03;4.27;;;2.90;;
8042;SDS011;4064;48.132;11.366;2022-11-20T08:57:31;3.53;;;3.23;;
8042;SDS011;4064;48.132;11.366;2022-11-20T08:59:57;4.23;;;2.87;;
8042;SDS011;4064;48.132;11.366;2022-11-20T09:02:23;3.53;;;3.00;;
8042;SDS011;4064;48.132;11.366;2022-11-20T09:04:49;3.20;;;2.70;;
8042;SDS011;4064;48.132;11.366;2022-11-20T09:07:15;3.40;;;3.10;;
8042;SDS011;4064;48.132;11.366;2022-11-20T09:09:40;5.83;;;3.10;;
8042;SDS011;4064;48.132;11.366;2022-11-20T09:12:06;2.80;;;2.60;;
8042;SDS011;4064;48.132;11.366;2022-11-20T09:14:31;3.30;;;3.03;;
8042;SDS011;4064;48.132;11.366;2022-11-20T09:16:58;3.17;;;2.87;;
8042;SDS011;4064;48.132;11.366;2022-11-20T09:19:24;2.50;;;2.30;;
8042;SDS011;4064;48.132;11.366;2022-11-20T09:21:50;2.63;;;2.43;;
8042;SDS011;4064;48.132;11.366;2022-11-20T09:24:16;3.60;;;2.63;;
8042;SDS011;4064;48.132;11.366;2022-11-20T09:26:42;4.70;;;2.90;;
8042;SDS011;4064;48.132;11.366;2022-11-20T09:29:07;4.53;;;2.87;;
8042;SDS011;4064;48.132;11.366;2022-11-20T09:31:33;2.60;;;2.30;;
8042;SDS011;4064;48.132;11.366;2022-11-20T09:33:58;4.00;;;3.10;;
8042;SDS011;4064;48.132;11.366;2022-11-20T09:36:24;3.17;;;2.87;;
8042;SDS011;4064;48.132;11.366;2022-11-20T09:38:49;4.10;;;2.57;;
8042;SDS011;4064;48.132;11.366;2022-11-20T09:44:12;2.47;;;2.27;;
8042;SDS011;4064;48.132;11.366;2022-11-20T09:52:32;2.70;;;2.50;;
8042;SDS011;4064;48.132;11.366;2022-11-20T09:55:10;2.50;;;1.90;;
8042;SDS011;4064;48.132;11.366;2022-11-20T09:57:42;347.80;;;115.47;;
8042;SDS011;4064;48.132;11.366;2022-11-20T10:00:12;1999.90;;;999.90;;
8042;SDS011;4064;48.132;11.366;2022-11-20T10:05:51;1999.90;;;999.90;;
8042;SDS011;4064;48.132;11.366;2022-11-20T10:08:21;1999.90;;;999.90;;
8042;SDS011;4064;48.132;11.366;2022-11-20T10:10:53;1999.90;;;999.90;;
8042;SDS011;4064;48.132;11.366;2022-11-20T10:13:49;1999.90;;;999.90;;
8042;SDS011;4064;48.132;11.366;2022-11-20T10:27:41;1999.90;;;999.90;;
8042;SDS011;4064;48.132;11.366;2022-11-20T10:30:25;1999.90;;;999.90;;
8042;SDS011;4064;48.132;11.366;2022-11-20T10:35:50;1999.90;;;999.90;;
8042;SDS011;4064;48.132;11.366;2022-11-20T10:38:39;1999.90;;;999.90;;
8042;SDS011;4064;48.132;11.366;2022-11-20T10:41:44;1999.90;;;999.90;;
8042;SDS011;4064;48.132;11.366;2022-11-20T10:44:16;1999.90;;;999.90;;
8042;SDS011;4064;48.132;11.366;2022-11-20T10:47:03;1999.90;;;999.90;;
8042;SDS011;4064;48.132;11.366;2022-11-20T10:49:30;1999.90;;;999.90;;
8042;SDS011;4064;48.132;11.366;2022-11-20T10:52:11;1999.90;;;999.90;;
8042;SDS011;4064;48.132;11.366;2022-11-20T11:00:25;1999.90;;;999.90;;
8042;SDS011;4064;48.132;11.366;2022-11-20T11:02:51;1999.90;;;999.90;;
8042;SDS011;4064;48.132;11.366;2022-11-20T11:08:08;1999.90;;;999.90;;
8042;SDS011;4064;48.132;11.366;2022-11-20T11:13:23;1999.90;;;999.90;;
8042;SDS011;4064;48.132;11.366;2022-11-20T11:15:53;1999.90;;;999.90;;
8042;SDS011;4064;48.132;11.366;2022-11-20T11:18:30;1999.90;;;999.90;;
8042;SDS011;4064;48.132;11.366;2022-11-20T11:20:57;1999.90;;;999.90;;
8042;SDS011;4064;48.132;11.366;2022-11-20T11:23:30;1999.90;;;999.90;;
8042;SDS011;4064;48.132;11.366;2022-11-20T11:26:02;1999.90;;;999.90;;
8042;SDS011;4064;48.132;11.366;2022-11-20T11:28:29;1999.90;;;999.90;;
8042;SDS011;4064;48.132;11.366;2022-11-20T11:30:55;1999.90;;;999.90;;
8042;SDS011;4064;48.132;11.366;2022-11-20T11:33:22;1999.90;;;999.90;;
8042;SDS011;4064;48.132;11.366;2022-11-20T11:35:50;1999.90;;;999.90;;
8042;SDS011;4064;48.132;11.366;2022-11-20T11:38:22;1999.90;;;999.90;;
8042;SDS011;4064;48.132;11.366;2022-11-20T11:40:55;1999.90;;;999.90;;
8042;SDS011;4064;48.132;11.366;2022-11-20T11:43:23;1999.90;;;999.90;;
8042;SDS011;4064;48.132;11.366;2022-11-20T11:46:25;1999.90;;;999.90;;
8042;SDS011;4064;48.132;11.366;2022-11-20T11:54:16;1999.90;;;999.90;;
8042;SDS011;4064;48.132;11.366;2022-11-20T11:56:53;1999.90;;;999.90;;
8042;SDS011;4064;48.132;11.366;2022-11-20T12:02:05;1999.90;;;999.90;;
8042;SDS011;4064;48.132;11.366;2022-11-20T12:05:03;1999.90;;;999.90;;
8042;SDS011;4064;48.132;11.366;2022-11-20T12:07:52;1999.90;;;999.90;;
8042;SDS011;4064;48.132;11.366;2022-11-20T12:10:48;1999.90;;;999.90;;
8042;SDS011;4064;48.132;11.366;2022-11-20T12:15:58;1999.90;;;999.90;;
8042;SDS011;4064;48.132;11.366;2022-11-20T12:18:24;1999.90;;;999.90;;
8042;SDS011;4064;48.132;11.366;2022-11-20T12:34:43;1999.90;;;999.90;;
8042;SDS011;4064;48.132;11.366;2022-11-20T12:37:33;1999.90;;;999.90;;
8042;SDS011;4064;48.132;11.366;2022-11-20T12:40:12;1999.90;;;999.90;;
8042;SDS011;4064;48.132;11.366;2022-11-20T12:42:46;1999.90;;;999.90;;
8042;SDS011;4064;48.132;11.366;2022-11-20T12:45:42;1999.90;;;999.90;;
8042;SDS011;4064;48.132;11.366;2022-11-20T12:48:36;1999.90;;;999.90;;
8042;SDS011;4064;48.132;11.366;2022-11-20T13:02:21;1999.90;;;999.90;;
8042;SDS011;4064;48.132;11.366;2022-11-20T13:07:54;1999.90;;;999.90;;
8042;SDS011;4064;48.132;11.366;2022-11-20T13:10:23;1999.90;;;999.90;;
8042;SDS011;4064;48.132;11.366;2022-11-20T13:18:34;1999.90;;;999.90;;
8042;SDS011;4064;48.132;11.366;2022-11-20T13:21:14;1999.90;;;999.90;;
8042;SDS011;4064;48.132;11.366;2022-11-20T13:23:41;1999.90;;;999.90;;
8042;SDS011;4064;48.132;11.366;2022-11-20T13:28:44;1999.90;;;999.90;;
8042;SDS011;4064;48.132;11.366;2022-11-20T13:34:22;1999.90;;;999.90;;
8042;SDS011;4064;48.132;11.366;2022-11-20T13:36:50;1999.90;;;999.90;;
8042;SDS011;4064;48.132;11.366;2022-11-20T13:39:24;1999.90;;;999.90;;
8042;SDS011;4064;48.132;11.366;2022-11-20T13:41:58;1999.90;;;999.90;;
8042;SDS011;4064;48.132;11.366;2022-11-20T13:44:39;1999.90;;;999.90;;
8042;SDS011;4064;48.132;11.366;2022-11-20T13:47:25;1999.90;;;999.90;;
8042;SDS011;4064;48.132;11.366;2022-11-20T13:49:52;1999.90;;;999.90;;
8042;SDS011;4064;48.132;11.366;2022-11-20T13:52:35;1999.90;;;999.90;;
8042;SDS011;4064;48.132;11.366;2022-11-20T13:58:31;1999.90;;;999.90;;
8042;SDS011;4064;48.132;11.366;2022-11-20T14:03:35;1999.90;;;999.90;;
8042;SDS011;4064;48.132;11.366;2022-11-20T14:06:04;1999.90;;;999.90;;
8042;SDS011;4064;48.132;11.366;2022-11-20T14:14:03;1999.90;;;999.90;;
8042;SDS011;4064;48.132;11.366;2022-11-20T14:16:40;1999.90;;;999.90;;
8042;SDS011;4064;48.132;11.366;2022-11-20T14:22:21;1999.90;;;999.90;;
8042;SDS011;4064;48.132;11.366;2022-11-20T14:24:48;1999.90;;;999.90;;
8042;SDS011;4064;48.132;11.366;2022-11-20T14:27:26;1999.90;;;999.90;;
8042;SDS011;4064;48.132;11.366;2022-11-20T14:29:52;1999.90;;;999.90;;
8042;SDS011;4064;48.132;11.366;2022-11-20T14:32:20;1999.90;;;999.90;;
8042;SDS011;4064;48.132;11.366;2022-11-20T14:34:51;1999.90;;;999.90;;
8042;SDS011;4064;48.132;11.366;2022-11-20T14:37:18;1999.90;;;999.90;;
8042;SDS011;4064;48.132;11.366;2022-11-20T14:39:53;1999.90;;;999.90;;
8042;SDS011;4064;48.132;11.366;2022-11-20T14:42:21;1999.90;;;999.90;;
8042;SDS011;4064;48.132;11.366;2022-11-20T14:44:49;1999.90;;;999.90;;
8042;SDS011;4064;48.132;11.366;2022-11-20T14:47:23;1999.90;;;999.90;;
8042;SDS011;4064;48.132;11.366;2022-11-20T14:49:51;1999.90;;;999.90;;
8042;SDS011;4064;48.132;11.366;2022-11-20T14:52:19;1999.90;;;999.90;;
8042;SDS011;4064;48.132;11.366;2022-11-20T14:54:48;1999.90;;;999.90;;
8042;SDS011;4064;48.132;11.366;2022-11-20T14:57:34;1999.90;;;999.90;;
8042;SDS011;4064;48.132;11.366;2022-11-20T15:02:40;1999.90;;;999.90;;
8042;SDS011;4064;48.132;11.366;2022-11-20T15:05:07;1999.90;;;999.90;;
8042;SDS011;4064;48.132;11.366;2022-11-20T15:07:33;1999.90;;;999.90;;
8042;SDS011;4064;48.132;11.366;2022-11-20T15:10:11;1999.90;;;999.90;;
8042;SDS011;4064;48.132;11.366;2022-11-20T15:12:54;1999.90;;;999.90;;
8042;SDS011;4064;48.132;11.366;2022-11-20T15:17:58;1999.90;;;999.90;;
8042;SDS011;4064;48.132;11.366;2022-11-20T15:20:26;1999.90;;;999.90;;
8042;SDS011;4064;48.132;11.366;2022-11-20T15:22:56;1999.90;;;999.90;;
8042;SDS011;4064;48.132;11.366;2022-11-20T15:25:22;1999.90;;;999.90;;
8042;SDS011;4064;48.132;11.366;2022-11-20T15:27:50;1999.90;;;999.90;;
8042;SDS011;4064;48.132;11.366;2022-11-20T15:30:20;1999.90;;;999.90;;
8042;SDS011;4064;48.132;11.366;2022-11-20T15:32:47;1999.90;;;999.90;;
8042;SDS011;4064;48.132;11.366;2022-11-20T15:35:13;1999.90;;;999.90;;
8042;SDS011;4064;48.132;11.366;2022-11-20T15:37:40;1999.90;;;999.90;;
8042;SDS011;4064;48.132;11.366;2022-11-20T15:40:06;1999.90;;;999.90;;
8042;SDS011;4064;48.132;11.366;2022-11-20T15:42:33;1999.90;;;999.90;;
8042;SDS011;4064;48.132;11.366;2022-11-20T15:44:59;1999.90;;;999.90;;
8042;SDS011;4064;48.132;11.366;2022-11-20T15:47:26;1999.90;;;999.90;;
8042;SDS011;4064;48.132;11.366;2022-11-20T15:49:57;3.55;;;1.65;;
8042;SDS011;4064;48.132;11.366;2022-11-20T15:52:23;2.80;;;1.80;;
8042;SDS011;4064;48.132;11.366;2022-11-20T15:54:48;2.70;;;1.67;;
8042;SDS011;4064;48.132;11.366;2022-11-20T15:57:14;2.23;;;1.67;;
8042;SDS011;4064;48.132;11.366;2022-11-20T15:59:40;2.70;;;2.03;;
8042;SDS011;4064;48.132;11.366;2022-11-20T16:02:10;2.20;;;2.00;;
8042;SDS011;4064;48.132;11.366;2022-11-20T16:04:36;2.10;;;1.90;;
8042;SDS011;4064;48.132;11.366;2022-11-20T16:07:03;1.90;;;1.55;;
8042;SDS011;4064;48.132;11.366;2022-11-20T16:09:28;2.50;;;1.83;;
8042;SDS011;4064;48.132;11.366;2022-11-20T16:11:54;2.30;;;2.10;;
8042;SDS011;4064;48.132;11.366;2022-11-20T16:14:20;3.17;;;2.63;;
8042;SDS011;4064;48.132;11.366;2022-11-20T16:17:04;3.03;;;1.52;;
8042;SDS011;4064;48.132;11.366;2022-11-20T16:19:29;3.00;;;2.70;;
8042;SDS011;4064;48.132;11.366;2022-11-20T16:21:56;5.57;;;3.97;;
8042;SDS011;4064;48.132;11.366;2022-11-20T16:24:22;4.25;;;3.63;;
8042;SDS011;4064;48.132;11.366;2022-11-20T16:26:48;5.77;;;3.20;;
8042;SDS011;4064;48.132;11.366;2022-11-20T16:29:14;6.53;;;2.10;;
8042;SDS011;4064;48.132;11.366;2022-11-20T16:31:40;4.87;;;2.63;;
8042;SDS011;4064;48.132;11.366;2022-11-20T16:34:06;3.60;;;2.63;;
8042;SDS011;4064;48.132;11.366;2022-11-20T16:36:32;3.28;;;2.63;;
8042;SDS011;4064;48.132;11.366;2022-11-20T16:39:00;277.73;;;106.97;;
8042;SDS011;4064;48.132;11.366;2022-11-20T16:41:29;123.30;;;113.88;;
8042;SDS011;4064;48.132;11.366;2022-11-20T16:43:57;6.80;;;3.15;;
8042;SDS011;4064;48.132;11.366;2022-11-20T16:46:24;7.78;;;3.15;;